createdAt,value
2023-03-26T00:02:02.032Z,35.60
2023-03-26T00:07:05.361Z,32.47
2023-03-26T00:12:07.947Z,33.58
2023-03-26T00:17:10.403Z,42.60
2023-03-26T00:22:13.851Z,40.70
2023-03-26T00:27:16.372Z,40.25
2023-03-26T00:32:18.953Z,34.92
2023-03-26T00:37:28.482Z,35.30
2023-03-26T00:42:32.190Z,36.88
2023-03-26T00:47:36.333Z,29.52
2023-03-26T00:52:39.383Z,31.77
2023-03-26T00:57:41.963Z,33.88
2023-03-26T01:02:45.393Z,34.75
2023-03-26T01:07:48.289Z,39.72
2023-03-26T01:12:50.754Z,42.28
2023-03-26T01:17:58.076Z,44.72
2023-03-26T01:23:05.571Z,49.28
2023-03-26T01:28:12.761Z,42.13
2023-03-26T01:33:34.371Z,40.78
2023-03-26T01:38:50.196Z,46.05
2023-03-26T01:44:06.887Z,45.55
2023-03-26T01:49:13.746Z,46.17
2023-03-26T01:54:23.285Z,47.95
2023-03-26T01:59:54.747Z,48.58
2023-03-26T02:05:26.385Z,43.97
2023-03-26T02:10:37.107Z,44.50
2023-03-26T02:15:41.316Z,44.30
2023-03-26T02:20:44.128Z,44.42
2023-03-26T02:25:47.867Z,42.78
2023-03-26T02:30:50.617Z,44.60
2023-03-26T02:35:53.906Z,45.55
2023-03-26T02:40:56.894Z,43.47
2023-03-26T02:46:10.505Z,44.05
2023-03-26T02:51:48.169Z,42.55
2023-03-26T02:57:01.615Z,41.88
2023-03-26T03:02:24.549Z,38.40
2023-03-26T03:07:32.771Z,41.70
2023-03-26T03:12:37.121Z,41.90
2023-03-26T03:17:40.790Z,40.13
2023-03-26T03:22:43.429Z,40.55
2023-03-26T03:27:46.129Z,41.05
2023-03-26T03:32:49.774Z,39.55
2023-03-26T03:38:00.299Z,41.78
2023-03-26T03:43:07.140Z,40.85
2023-03-26T03:48:19.307Z,37.42
2023-03-26T03:53:26.378Z,36.90
2023-03-26T03:58:31.521Z,28.80
2023-03-26T04:03:46.959Z,24.02
2023-03-26T04:08:53.024Z,24.88
2023-03-26T04:13:56.583Z,19.27
2023-03-26T04:19:17.894Z,19.45
2023-03-26T04:24:22.683Z,19.48
2023-03-26T04:29:50.049Z,18.50
2023-03-26T04:35:01.045Z,16.80
2023-03-26T04:40:10.500Z,13.35
2023-03-26T04:45:35.982Z,14.02
2023-03-26T04:50:38.644Z,11.25
2023-03-26T04:56:05.739Z,11.68
2023-03-26T05:01:28.626Z,12.63
2023-03-26T05:06:34.602Z,8.63
2023-03-26T05:11:43.901Z,8.05
2023-03-26T05:16:49.280Z,8.60
2023-03-26T05:21:52.305Z,8.13
2023-03-26T05:26:56.203Z,9.25
2023-03-26T05:32:00.145Z,7.97
2023-03-26T05:37:04.926Z,9.07
2023-03-26T05:42:21.754Z,9.15
2023-03-26T05:47:37.813Z,8.65
2023-03-26T05:52:40.891Z,9.27
2023-03-26T05:58:01.705Z,8.70
2023-03-26T06:03:24.832Z,8.55
2023-03-26T06:09:02.041Z,8.63
2023-03-26T06:14:07.198Z,9.13
2023-03-26T06:19:12.100Z,7.65
2023-03-26T06:24:43.677Z,7.65
2023-03-26T06:30:13.285Z,8.25
2023-03-26T06:35:38.905Z,7.43
2023-03-26T06:40:41.526Z,7.32
2023-03-26T06:45:57.924Z,7.10
2023-03-26T06:51:18.740Z,6.30
2023-03-26T06:56:53.990Z,5.47
2023-03-26T07:01:56.552Z,5.82
2023-03-26T07:07:18.442Z,6.63
2023-03-26T07:12:39.562Z,5.70
2023-03-26T07:18:11.104Z,5.13
2023-03-26T07:23:20.247Z,5.38
2023-03-26T07:29:07.723Z,4.60
2023-03-26T07:35:16.313Z,5.07
2023-03-26T07:41:11.388Z,5.10
2023-03-26T07:46:43.379Z,3.95
2023-03-26T07:51:56.185Z,4.35
2023-03-26T07:57:24.345Z,4.20
2023-03-26T08:02:49.140Z,3.72
2023-03-26T08:08:59.452Z,3.95
2023-03-26T08:14:25.968Z,4.10
2023-03-26T08:19:50.869Z,4.65
2023-03-26T08:25:05.662Z,4.47
2023-03-26T08:30:25.597Z,5.00
2023-03-26T08:35:28.690Z,4.90
2023-03-26T08:40:49.377Z,4.68
2023-03-26T08:46:16.546Z,5.28
2023-03-26T08:51:44.026Z,4.95
2023-03-26T08:56:59.782Z,4.50
2023-03-26T09:02:38.654Z,5.30
2023-03-26T09:08:02.738Z,4.43
2023-03-26T09:13:28.044Z,5.07
2023-03-26T09:18:51.954Z,4.90
2023-03-26T09:24:30.137Z,4.55
2023-03-26T09:29:57.517Z,5.00
2023-03-26T09:35:30.470Z,4.28
2023-03-26T09:41:05.075Z,4.55
2023-03-26T09:46:48.874Z,4.70
2023-03-26T09:51:57.728Z,5.38
2023-03-26T09:57:09.016Z,5.53
2023-03-26T10:02:49.869Z,5.45
2023-03-26T10:08:01.816Z,6.43
2023-03-26T10:13:31.523Z,5.95
2023-03-26T10:18:42.874Z,4.75
2023-03-26T10:23:51.529Z,5.45
2023-03-26T10:29:09.745Z,4.78
2023-03-26T10:34:57.048Z,4.35
2023-03-26T10:40:33.233Z,5.25
2023-03-26T10:45:38.591Z,6.47
2023-03-26T10:50:41.210Z,5.25
2023-03-26T10:55:47.112Z,5.22
2023-03-26T11:01:02.263Z,5.38
2023-03-26T11:06:47.364Z,6.20
2023-03-26T11:11:59.446Z,5.22
2023-03-26T11:17:39.510Z,4.97
2023-03-26T11:23:25.136Z,4.80
2023-03-26T11:29:03.660Z,5.13
2023-03-26T11:34:21.606Z,5.05
2023-03-26T11:39:33.929Z,4.88
2023-03-26T11:44:43.311Z,5.20
2023-03-26T11:49:48.372Z,4.65
2023-03-26T11:54:51.458Z,5.13
2023-03-26T12:00:17.112Z,4.53
2023-03-26T12:05:25.149Z,4.28
2023-03-26T12:10:38.466Z,4.47
2023-03-26T12:15:44.656Z,4.32
2023-03-26T12:20:48.385Z,3.95
2023-03-26T12:36:36.871Z,3.15
2023-03-26T12:44:44.554Z,2.80
2023-03-26T12:47:57.561Z,3.75
2023-03-26T12:52:55.933Z,3.15
2023-03-26T12:58:18.848Z,3.10
2023-03-26T13:03:45.468Z,3.15
2023-03-26T13:08:57.949Z,3.08
2023-03-26T13:14:39.533Z,3.00
2023-03-26T13:20:22.675Z,3.30
2023-03-26T13:25:43.464Z,3.63
2023-03-26T13:31:24.137Z,3.42
2023-03-26T13:36:46.904Z,4.32
2023-03-26T13:41:52.938Z,3.70
2023-03-26T13:47:04.143Z,3.88
2023-03-26T13:52:12.470Z,4.60
2023-03-26T13:57:25.213Z,4.38
2023-03-26T14:02:40.891Z,4.60
2023-03-26T14:08:01.837Z,5.28
2023-03-26T14:13:15.965Z,10.38
2023-03-26T14:18:46.158Z,13.60
2023-03-26T14:24:03.861Z,8.98
2023-03-26T14:29:29.083Z,9.13
2023-03-26T14:34:58.825Z,7.93
2023-03-26T14:40:17.306Z,7.05
2023-03-26T14:45:44.377Z,7.32
2023-03-26T14:50:47.008Z,6.35
2023-03-26T14:56:15.769Z,6.22
2023-03-26T15:01:47.516Z,6.60
2023-03-26T15:06:50.219Z,5.97
2023-03-26T15:12:18.624Z,5.85
2023-03-26T15:17:57.853Z,7.32
2023-03-26T15:23:28.755Z,5.72
2023-03-26T15:28:55.861Z,4.80
2023-03-26T15:34:01.270Z,5.95
2023-03-26T15:39:59.910Z,6.95
2023-03-26T15:45:56.581Z,7.47
2023-03-26T15:51:47.051Z,4.93
2023-03-26T15:57:22.902Z,6.47
2023-03-26T16:02:50.551Z,6.60
2023-03-26T16:08:07.936Z,6.95
2023-03-26T16:13:40.956Z,7.00
2023-03-26T16:18:45.593Z,3.80
2023-03-26T16:23:49.351Z,4.60
2023-03-26T16:28:55.251Z,7.47
2023-03-26T16:34:10.942Z,5.97
2023-03-26T16:39:49.562Z,3.10
2023-03-26T16:45:01.028Z,3.97
2023-03-26T16:50:18.998Z,4.38
2023-03-26T16:55:31.214Z,4.35
2023-03-26T17:00:39.692Z,4.18
2023-03-26T17:05:57.228Z,5.07
2023-03-26T17:11:23.653Z,3.40
2023-03-26T17:16:34.600Z,4.22
2023-03-26T17:21:56.111Z,4.03
2023-03-26T17:27:36.189Z,3.60
2023-03-26T17:33:03.767Z,3.97
2023-03-26T17:38:18.543Z,4.40
2023-03-26T17:43:57.699Z,3.58
2023-03-26T17:49:16.880Z,3.08
2023-03-26T17:54:34.021Z,3.13
2023-03-26T17:59:39.194Z,3.95
2023-03-26T18:04:45.956Z,2.53
2023-03-26T18:10:10.832Z,3.17
2023-03-26T18:15:58.916Z,2.80
2023-03-26T18:21:07.427Z,3.50
2023-03-26T18:26:23.245Z,3.55
2023-03-26T18:31:27.142Z,3.63
2023-03-26T18:36:31.729Z,3.80
2023-03-26T18:41:41.968Z,4.90
2023-03-26T18:46:46.117Z,3.45
2023-03-26T18:51:56.798Z,3.25
2023-03-26T18:57:15.056Z,3.15
2023-03-26T19:02:20.031Z,3.25
2023-03-26T19:07:26.743Z,3.65
2023-03-26T19:12:36.873Z,2.97
2023-03-26T19:17:46.118Z,2.88
2023-03-26T19:22:49.656Z,3.22
2023-03-26T19:27:52.780Z,3.70
2023-03-26T19:32:56.153Z,3.40
2023-03-26T19:38:44.855Z,4.05
2023-03-26T19:43:52.867Z,3.47
2023-03-26T19:48:59.247Z,3.42
2023-03-26T19:54:04.906Z,3.80
2023-03-26T19:59:07.894Z,3.45
2023-03-26T20:04:12.543Z,3.85
2023-03-26T20:09:16.532Z,4.10
2023-03-26T20:14:26.409Z,3.95
2023-03-26T20:19:29.872Z,4.03
2023-03-26T20:24:33.828Z,4.15
2023-03-26T20:29:36.974Z,4.15
2023-03-26T20:34:40.201Z,4.57
2023-03-26T20:39:43.097Z,4.03
2023-03-26T20:44:45.719Z,4.10
2023-03-26T20:49:48.206Z,4.35
2023-03-26T20:54:50.759Z,5.05
2023-03-26T20:59:55.893Z,3.92
2023-03-26T21:04:58.603Z,3.83
2023-03-26T21:10:02.234Z,4.07
2023-03-26T21:15:13.358Z,4.57
2023-03-26T21:20:20.109Z,4.38
2023-03-26T21:25:37.004Z,4.85
2023-03-26T21:30:40.130Z,4.50
2023-03-26T21:35:42.883Z,4.28
2023-03-26T21:40:52.923Z,5.07
2023-03-26T21:46:01.386Z,4.63
2023-03-26T21:51:05.688Z,4.80
2023-03-26T21:56:50.715Z,4.25
2023-03-26T22:02:00.700Z,4.70
2023-03-26T22:07:30.897Z,4.93
2023-03-26T22:12:33.458Z,3.83
2023-03-26T22:17:36.130Z,4.53
2023-03-26T22:22:49.240Z,4.70
2023-03-26T22:27:52.933Z,4.30
2023-03-26T22:32:55.914Z,3.20
2023-03-26T22:38:01.474Z,3.85
2023-03-26T22:43:04.842Z,5.72
2023-03-26T22:48:07.581Z,5.10
2023-03-26T22:53:10.210Z,5.82
2023-03-26T22:58:14.019Z,5.03
2023-03-26T23:03:16.560Z,4.75
2023-03-26T23:08:19.054Z,6.45
2023-03-26T23:13:22.360Z,6.15
2023-03-26T23:18:25.129Z,5.43
2023-03-26T23:23:30.177Z,5.88
2023-03-26T23:28:34.067Z,5.80
2023-03-26T23:33:38.755Z,6.43
2023-03-26T23:43:54.153Z,6.15
2023-03-26T23:49:00.220Z,6.80
2023-03-26T23:54:03.069Z,5.40
2023-03-26T23:59:06.352Z,5.30
